Terminal Aerodrome Forecast
Issued by NWS Sterling, VA

Current Version | Previous Version | Graphics & Text | Print | Product List | Glossary On
Versions: 1 2 3 4 5 6 7 8 9 10 11 12 13 14 15 16 17 18 19 20 21 22 23 24
000
FTUS41 KLWX 052321
TAFIAD
TAF
KIAD 052321Z 0600/0706 01006KT P6SM BKN200
     FM061100 06004KT P6SM OVC120
     FM061200 07004KT P6SM -RA OVC100
     FM061400 09006KT 4SM -RA OVC030
     FM061500 09006KT 2SM -RA BR OVC015
     FM061600 09006KT 1/2SM -RA FG OVC004
     FM062300 03006KT 1/2SM -RA OVC003=

USA.gov is the U.S. government's official web portal to all federal, state and local government web resources and services.